Time;durP1;ratioP1;P1;durP2;ratioP2;P2;SDS_P1;SDS_P2;PMS_P1;PMS_P2;Temp;Humidity;BMP_temperature;BMP_pressure;BME280_temperature;BME280_humidity;BME280_pressure;Samples;Min_cycle;Max_cycle;Signal;HPM_P1;HPM_P2
2022/12/03 00:01:13;;;;;;;19.70;11.20;;;3.00;99.90;;;;;;5004341;28;20046;-57
2022/12/03 00:03:39;;;;;;;23.70;12.98;;;;;;;;;;5001970;28;20046;-57
2022/12/03 00:06:05;;;;;;;23.83;12.20;;;;;;;;;;5004390;28;20037;-58
2022/12/03 00:08:31;;;;;;;22.25;12.20;;;;;;;;;;5002968;28;20042;-58
2022/12/03 00:10:57;;;;;;;20.60;11.45;;;;;;;;;;5002519;28;20046;-58
2022/12/03 00:13:23;;;;;;;16.60;9.88;;;;;;;;;;5000963;28;20045;-59
2022/12/03 00:15:49;;;;;;;20.50;11.05;;;;;;;;;;5003703;28;20045;-58
2022/12/03 00:18:15;;;;;;;16.52;10.48;;;;;;;;;;5002250;28;20422;-58
2022/12/03 00:20:41;;;;;;;19.25;10.80;;;;;;;;;;5003296;28;21058;-58
2022/12/03 00:23:07;;;;;;;17.73;11.32;;;5.30;99.90;;;;;;5005142;28;20461;-58
2022/12/03 00:25:34;;;;;;;17.45;9.48;;;;;;;;;;5003859;28;20045;-58
2022/12/03 00:28:00;;;;;;;18.25;9.93;;;;;;;;;;4998061;28;20043;-58
2022/12/03 00:30:26;;;;;;;17.30;9.32;;;;;;;;;;5002904;28;20116;-58
2022/12/03 00:32:52;;;;;;;18.05;9.85;;;;;;;;;;5001462;28;20606;-57
2022/12/03 00:35:18;;;;;;;17.45;9.68;;;;;;;;;;5006352;28;20052;-58
2022/12/03 00:37:44;;;;;;;16.77;10.05;;;;;;;;;;5002273;28;20045;-58
2022/12/03 00:40:11;;;;;;;16.02;9.30;;;4.10;99.90;;;;;;5005273;28;20044;-58
2022/12/03 00:42:37;;;;;;;20.60;9.60;;;;;;;;;;5009382;28;20308;-58
2022/12/03 00:45:03;;;;;;;19.50;10.30;;;;;;;;;;5005337;28;20037;-57
2022/12/03 00:47:29;;;;;;;14.98;8.98;;;;;;;;;;5007815;28;20446;-58
2022/12/03 00:49:55;;;;;;;16.50;8.98;;;;;;;;;;5008013;28;20054;-58
2022/12/03 00:52:22;;;;;;;15.80;9.15;;;;;;;;;;5008064;28;20073;-58
2022/12/03 00:54:48;;;;;;;19.35;8.90;;;;;;;;;;5005504;28;20706;-58
2022/12/03 00:57:14;;;;;;;14.65;9.50;;;;;;;;;;5003756;28;20060;-58
2022/12/03 00:59:40;;;;;;;17.83;9.05;;;;;;;;;;5009781;28;20054;-58
2022/12/03 01:02:06;;;;;;;15.75;9.05;;;;;;;;;;5009953;28;20053;-58
2022/12/03 01:04:32;;;;;;;17.02;10.40;;;;;;;;;;5005959;28;20080;-58
2022/12/03 01:06:59;;;;;;;18.85;9.32;;;;;;;;;;5005593;28;20041;-57
2022/12/03 01:09:25;;;;;;;16.40;8.52;;;;;;;;;;5006783;28;20064;-58
2022/12/03 01:11:51;;;;;;;16.98;9.40;;;;;;;;;;5004847;28;20045;-58
2022/12/03 01:14:19;;;;;;;15.00;8.85;;;4.20;99.90;;;;;;5007838;28;20041;-58
2022/12/03 01:16:45;;;;;;;16.23;9.65;;;4.30;99.90;;;;;;5006083;28;20038;-58
2022/12/03 01:19:14;;;;;;;15.13;8.98;;;;;;;;;;5009210;28;20124;-58
2022/12/03 01:21:45;;;;;;;15.18;8.65;;;4.10;99.90;;;;;;5004953;28;20112;-58
2022/12/03 01:24:11;;;;;;;15.45;7.97;;;;;;;;;;5004907;28;20050;-58
2022/12/03 01:26:38;;;;;;;28.55;10.27;;;;;;;;;;5000738;28;20053;-57
2022/12/03 01:29:04;;;;;;;17.17;10.15;;;;;;;;;;5003821;28;20037;-58
2022/12/03 01:34:15;;;;;;;14.10;8.82;;;;;;;;;;5003449;28;20045;-57
2022/12/03 01:36:41;;;;;;;17.52;9.82;;;;;;;;;;5006728;28;20053;-58
2022/12/03 01:39:07;;;;;;;17.95;10.35;;;;;;;;;;5005525;28;20104;-58
2022/12/03 01:41:35;;;;;;;17.38;9.85;;;4.40;99.90;;;;;;5006638;28;20071;-58
2022/12/03 01:44:01;;;;;;;16.33;10.88;;;4.30;99.90;;;;;;5005346;28;20498;-57
2022/12/03 01:46:39;;;;;;;17.02;10.15;;;4.30;99.90;;;;;;5006656;28;20739;-57
2022/12/03 01:49:05;;;;;;;17.83;10.75;;;;;;;;;;5004355;28;20129;-58
2022/12/03 01:51:31;;;;;;;15.85;9.85;;;;;;;;;;5008024;28;20041;-57
2022/12/03 01:53:59;;;;;;;19.48;11.18;;;4.50;99.90;;;;;;5005042;28;20668;-58
2022/12/03 01:56:25;;;;;;;17.65;11.80;;;;;;;;;;4999354;28;20042;-58
2022/12/03 01:58:51;;;;;;;17.95;11.38;;;;;;;;;;5003781;28;20042;-57
2022/12/03 02:01:18;;;;;;;19.33;12.95;;;4.20;99.90;;;;;;5002337;28;20555;-57
2022/12/03 02:03:45;;;;;;;18.33;11.43;;;4.20;99.90;;;;;;5004512;28;20057;-58
2022/12/03 02:06:17;;;;;;;18.15;11.60;;;4.30;99.90;;;;;;5006761;28;20041;-57
2022/12/03 02:08:43;;;;;;;19.00;11.35;;;;;;;;;;5007638;28;20607;-58
2022/12/03 02:11:21;;;;;;;18.40;11.35;;;4.30;99.90;;;;;;5003980;28;20065;-58
2022/12/03 02:13:50;;;;;;;17.30;11.18;;;4.20;99.90;;;;;;5007352;28;20150;-58
2022/12/03 02:16:16;;;;;;;18.05;11.35;;;;;;;;;;5004455;28;20045;-58
2022/12/03 02:18:42;;;;;;;18.75;12.55;;;;;;;;;;5005281;28;20112;-58
2022/12/03 02:21:29;;;;;;;19.25;12.13;;;4.20;99.90;;;;;;5004861;28;20372;-57
2022/12/03 02:24:07;;;;;;;19.15;11.60;;;4.20;99.90;;;;;;5004809;28;20041;-58
2022/12/03 02:26:33;;;;;;;17.83;11.80;;;;;;;;;;5004939;28;20444;-58
2022/12/03 02:28:59;;;;;;;19.33;11.80;;;;;;;;;;5002301;28;20037;-58
2022/12/03 02:31:25;;;;;;;19.40;12.15;;;;;;;;;;5006553;28;20034;-57
2022/12/03 02:33:51;;;;;;;18.58;11.13;;;;;;;;;;5003552;28;20430;-58
2022/12/03 02:36:18;;;;;;;19.25;12.85;;;;;;;;;;5005734;28;20060;-58
2022/12/03 02:38:46;;;;;;;18.88;12.05;;;4.20;99.90;;;;;;5004381;28;20049;-58
2022/12/03 02:42:33;;;;;;;20.25;12.18;;;4.00;99.90;;;;;;5001540;28;20057;-58
2022/12/03 02:44:03;;;;;;;21.13;12.60;;;4.00;99.90;;;;;;5006267;28;20152;-58
2022/12/03 02:46:29;;;;;;;19.27;12.65;;;;;;;;;;5007335;28;20133;-57
2022/12/03 02:48:55;;;;;;;20.98;12.77;;;;;;;;;;5007033;28;20226;-58
2022/12/03 02:51:21;;;;;;;19.27;11.98;;;;;;;;;;5005248;28;20044;-58
2022/12/03 02:53:50;;;;;;;21.92;13.93;;;3.90;99.90;;;;;;5005589;28;20046;-58
2022/12/03 02:56:21;;;;;;;21.00;10.82;;;4.20;99.90;;;;;;5003258;28;20073;-58
2022/12/03 02:58:50;;;;;;;18.33;12.27;;;4.00;99.90;;;;;;4999164;28;20045;-58
2022/12/03 03:01:16;;;;;;;20.10;12.57;;;;;;;;;;5004498;28;20050;-57
2022/12/03 03:03:44;;;;;;;19.05;12.35;;;4.00;99.90;;;;;;5005330;28;20042;-58
2022/12/03 03:06:11;;;;;;;20.08;12.65;;;4.00;99.90;;;;;;5000424;28;20602;-58
2022/12/03 03:08:37;;;;;;;19.75;13.15;;;;;;;;;;5001978;28;20045;-58
2022/12/03 03:11:03;;;;;;;19.58;12.90;;;;;;;;;;5004171;28;20429;-57
2022/12/03 03:13:31;;;;;;;18.40;12.02;;;3.90;99.90;;;;;;5006332;28;20039;-58
2022/12/03 03:15:57;;;;;;;18.35;9.93;;;;;;;;;;5004729;28;20063;-58
2022/12/03 03:18:23;;;;;;;20.25;12.32;;;;;;;;;;5003372;28;20490;-58
2022/12/03 03:20:49;;;;;;;21.13;12.02;;;;;;;;;;5004778;28;20046;-57
2022/12/03 03:23:21;;;;;;;20.80;11.05;;;3.90;99.90;;;;;;5004376;28;20041;-58
2022/12/03 03:26:08;;;;;;;19.77;12.03;;;3.90;99.90;;;;;;5003604;28;20056;-58
2022/12/03 03:28:39;;;;;;;17.88;10.50;;;3.80;99.90;;;;;;5003298;28;20042;-57
2022/12/03 03:31:07;;;;;;;22.83;12.98;;;3.90;99.90;;;;;;4985371;28;20116;-58
2022/12/03 03:33:33;;;;;;;19.52;11.38;;;;;;;;;;4998206;28;20650;-58
2022/12/03 03:35:59;;;;;;;21.25;12.95;;;;;;;;;;5002611;28;20454;-57
2022/12/03 03:38:26;;;;;;;19.27;12.25;;;3.80;99.90;;;;;;5005409;28;20641;-57
2022/12/03 03:40:53;;;;;;;22.23;13.20;;;;;;;;;;5002298;28;20037;-57
2022/12/03 03:43:20;;;;;;;20.52;12.35;;;3.70;99.90;;;;;;5002387;28;20050;-58
2022/12/03 03:45:47;;;;;;;14.32;9.23;;;;;;;;;;5001401;28;20041;-58
2022/12/03 03:48:13;;;;;;;19.65;12.55;;;;;;;;;;5003322;28;20056;-57
2022/12/03 03:50:40;;;;;;;18.35;12.00;;;;;;;;;;4999900;28;20077;-58
2022/12/03 03:53:06;;;;;;;21.45;12.68;;;;;;;;;;5003436;28;20052;-58
2022/12/03 03:55:32;;;;;;;21.85;12.45;;;;;;;;;;5003196;28;20115;-57
2022/12/03 03:57:58;;;;;;;20.02;11.98;;;;;;;;;;5003481;28;20842;-58
2022/12/03 04:00:24;;;;;;;18.85;10.38;;;;;;;;;;5007703;28;20116;-58
2022/12/03 04:02:52;;;;;;;22.08;12.90;;;3.60;99.90;;;;;;5003442;28;20037;-57
2022/12/03 04:05:20;;;;;;;16.00;8.90;;;3.80;99.90;;;;;;5004061;28;20497;-58
2022/12/03 04:07:46;;;;;;;21.83;12.10;;;;;;;;;;5004250;28;20457;-57
2022/12/03 04:12:58;;;;;;;20.55;11.98;;;;;;;;;;5002915;28;20050;-58
2022/12/03 04:15:24;;;;;;;21.67;12.38;;;;;;;;;;5000641;28;20052;-57
2022/12/03 04:20:36;;;;;;;19.15;9.60;;;;;;;;;;5002383;28;20402;-57
2022/12/03 04:23:02;;;;;;;21.33;12.90;;;;;;;;;;5001289;28;20044;-57
2022/12/03 04:30:58;;;;;;;23.13;14.25;;;;;;;;;;5002222;28;20063;-57
2022/12/03 04:36:09;;;;;;;18.13;11.18;;;;;;;;;;5002617;28;20049;-57
2022/12/03 04:38:35;;;;;;;19.13;9.73;;;;;;;;;;5003563;28;20052;-61
2022/12/03 04:41:04;;;;;;;19.52;10.15;;;;;;;;;;5002823;28;20045;-57
2022/12/03 04:44:31;;;;;;;20.75;11.85;;;3.40;99.90;;;;;;4996731;28;20502;-58
2022/12/03 04:46:20;;;;;;;20.98;11.88;;;;;;;;;;4997951;28;20302;-57
2022/12/03 04:48:46;;;;;;;21.17;12.80;;;;;;;;;;5002040;28;20046;-58
2022/12/03 04:51:12;;;;;;;23.80;13.13;;;;;;;;;;5000495;28;20037;-57
2022/12/03 04:53:38;;;;;;;23.17;14.40;;;;;;;;;;5002298;28;20128;-58
2022/12/03 04:56:04;;;;;;;23.27;13.25;;;;;;;;;;4998613;28;20041;-56
2022/12/03 04:58:30;;;;;;;19.42;11.80;;;;;;;;;;4999043;28;20046;-57
2022/12/03 05:00:56;;;;;;;20.85;12.82;;;;;;;;;;5001949;28;20510;-57
2022/12/03 05:03:22;;;;;;;23.48;14.35;;;;;;;;;;5000217;28;20049;-56
2022/12/03 05:05:48;;;;;;;21.52;13.65;;;;;;;;;;5002816;28;20133;-57
2022/12/03 05:08:15;;;;;;;23.65;13.90;;;;;;;;;;5006238;28;20100;-57
2022/12/03 05:10:41;;;;;;;22.67;12.80;;;;;;;;;;5006482;28;20585;-57
2022/12/03 05:13:07;;;;;;;22.15;13.20;;;;;;;;;;4998659;28;20456;-56
2022/12/03 05:15:33;;;;;;;21.88;12.88;;;;;;;;;;5001460;28;20045;-56
2022/12/03 05:17:59;;;;;;;23.42;13.73;;;;;;;;;;5002031;28;20094;-56
2022/12/03 05:20:40;;;;;;;22.38;13.20;;;;;;;;;;4997746;28;20053;-56
2022/12/03 05:23:08;;;;;;;20.48;11.82;;;3.20;99.90;;;;;;5005907;28;20038;-57
2022/12/03 05:25:34;;;;;;;20.40;11.00;;;;;;;;;;5006089;28;20049;-57
2022/12/03 05:28:00;;;;;;;21.67;13.65;;;;;;;;;;5007385;28;20042;-56
2022/12/03 05:30:26;;;;;;;23.77;14.57;;;;;;;;;;5007043;28;20391;-57
2022/12/03 05:32:52;;;;;;;20.50;11.38;;;;;;;;;;5004474;28;20046;-56
2022/12/03 05:35:18;;;;;;;22.83;12.98;;;;;;;;;;5006642;28;20042;-56
2022/12/03 05:37:44;;;;;;;21.95;13.75;;;;;;;;;;5003500;28;20455;-56
2022/12/03 05:40:11;;;;;;;21.23;13.73;;;3.20;99.90;;;;;;5007318;28;20406;-58
2022/12/03 05:42:52;;;;;;;19.40;11.40;;;;;;;;;;5010487;28;20045;-57
2022/12/03 05:45:23;;;;;;;20.17;11.18;;;3.20;99.90;;;;;;5006605;28;20041;-56
2022/12/03 05:47:49;;;;;;;21.90;12.70;;;;;;;;;;5003807;28;20419;-56
2022/12/03 05:50:15;;;;;;;22.40;12.68;;;;;;;;;;5006470;28;20045;-56
2022/12/03 05:52:41;;;;;;;25.00;13.90;;;;;;;;;;5006441;28;20053;-56
2022/12/03 05:55:08;;;;;;;22.83;11.48;;;;;;;;;;5008100;28;20045;-57
2022/12/03 05:57:34;;;;;;;24.33;13.90;;;;;;;;;;5005560;28;20056;-56
2022/12/03 06:00:00;;;;;;;21.60;12.77;;;;;;;;;;5007648;28;20048;-56
2022/12/03 06:02:27;;;;;;;24.13;14.32;;;;;;;;;;5002306;28;20144;-56
2022/12/03 06:04:53;;;;;;;17.73;9.98;;;;;;;;;;5010542;28;20330;-56
2022/12/03 06:07:19;;;;;;;22.58;10.82;;;;;;;;;;5006950;28;20048;-57
2022/12/03 06:09:45;;;;;;;20.35;11.52;;;;;;;;;;5005019;28;20382;-57
2022/12/03 06:12:11;;;;;;;23.17;12.85;;;;;;;;;;5005459;28;20046;-56
2022/12/03 06:14:37;;;;;;;21.73;11.18;;;;;;;;;;5002893;28;20069;-56
2022/12/03 06:17:03;;;;;;;22.05;12.57;;;;;;;;;;5005357;28;20065;-57
2022/12/03 06:19:30;;;;;;;22.23;12.82;;;;;;;;;;5007324;28;20124;-56
2022/12/03 06:21:56;;;;;;;23.90;13.82;;;;;;;;;;5000406;28;20069;-56
2022/12/03 06:24:22;;;;;;;22.05;12.27;;;;;;;;;;5002499;28;20800;-57
2022/12/03 06:26:48;;;;;;;21.67;11.48;;;;;;;;;;5006535;28;20413;-57
2022/12/03 06:29:14;;;;;;;24.80;13.93;;;;;;;;;;5002065;28;20199;-56
2022/12/03 06:31:40;;;;;;;26.92;13.65;;;;;;;;;;5005332;28;20588;-57
2022/12/03 06:34:06;;;;;;;23.67;13.82;;;;;;;;;;5003375;28;20071;-56
2022/12/03 06:36:32;;;;;;;23.20;13.40;;;;;;;;;;5005669;28;20209;-56
2022/12/03 06:38:58;;;;;;;19.33;9.77;;;;;;;;;;5008441;28;20045;-58
2022/12/03 06:41:24;;;;;;;22.75;12.18;;;;;;;;;;5006597;28;20446;-58
2022/12/03 06:43:50;;;;;;;17.67;9.38;;;;;;;;;;5003882;28;20069;-58
2022/12/03 06:46:16;;;;;;;23.65;12.98;;;;;;;;;;5005175;28;20061;-58
2022/12/03 06:48:42;;;;;;;22.17;13.20;;;;;;;;;;5001296;28;20076;-59
2022/12/03 06:51:09;;;;;;;25.75;13.70;;;;;;;;;;5003824;28;20285;-58
2022/12/03 06:53:35;;;;;;;20.15;11.30;;;;;;;;;;5005448;28;20140;-58
2022/12/03 06:56:01;;;;;;;21.45;10.82;;;;;;;;;;5004488;28;20050;-58
2022/12/03 06:58:27;;;;;;;22.77;12.82;;;;;;;;;;4997919;28;20053;-57
2022/12/03 07:00:53;;;;;;;21.95;11.27;;;;;;;;;;4999525;28;20164;-58
2022/12/03 07:03:20;;;;;;;21.48;12.98;;;;;;;;;;5006429;28;20041;-58
2022/12/03 07:05:46;;;;;;;24.92;12.32;;;;;;;;;;5001368;28;20088;-58
2022/12/03 07:08:12;;;;;;;21.50;12.93;;;;;;;;;;5006326;28;20037;-58
2022/12/03 07:10:38;;;;;;;17.65;10.05;;;;;;;;;;5004593;28;20065;-58
2022/12/03 07:13:04;;;;;;;21.83;10.50;;;;;;;;;;5005719;28;20041;-58
2022/12/03 07:15:30;;;;;;;18.10;10.60;;;;;;;;;;5007898;28;20648;-58
2022/12/03 07:17:56;;;;;;;20.00;9.10;;;;;;;;;;4999696;28;20042;-58
2022/12/03 07:20:22;;;;;;;16.90;9.27;;;;;;;;;;4997372;28;20046;-58
2022/12/03 07:22:48;;;;;;;25.10;12.88;;;;;;;;;;5000816;28;20042;-58
2022/12/03 07:25:14;;;;;;;21.95;12.65;;;;;;;;;;4998554;28;20398;-59
2022/12/03 07:27:40;;;;;;;20.85;12.25;;;;;;;;;;4999980;28;20048;-58
2022/12/03 07:30:07;;;;;;;20.67;11.93;;;3.10;99.90;;;;;;4997196;28;20038;-58
2022/12/03 07:32:33;;;;;;;19.50;11.43;;;;;;;;;;5002199;28;20285;-58
2022/12/03 07:35:00;;;;;;;22.58;12.10;;;;;;;;;;4996553;28;20144;-58
2022/12/03 07:37:26;;;;;;;21.65;11.32;;;;;;;;;;4995916;28;20056;-58
2022/12/03 07:39:53;;;;;;;21.23;12.20;;;;;;;;;;5002887;28;20568;-57
2022/12/03 07:42:19;;;;;;;24.38;12.25;;;;;;;;;;5003721;28;20300;-59
2022/12/03 07:44:45;;;;;;;22.45;12.63;;;3.00;99.90;;;;;;5000149;28;20471;-59
2022/12/03 07:47:12;;;;;;;23.63;12.25;;;;;;;;;;4999762;28;20053;-58
2022/12/03 07:49:38;;;;;;;21.77;10.43;;;;;;;;;;5000922;28;20041;-58
2022/12/03 07:52:05;;;;;;;19.63;11.52;;;;;;;;;;5001848;28;20466;-58
2022/12/03 07:54:31;;;;;;;19.52;10.57;;;;;;;;;;5003047;28;20081;-58
2022/12/03 07:56:58;;;;;;;19.75;10.20;;;;;;;;;;5003386;28;20049;-58
2022/12/03 07:59:24;;;;;;;17.92;9.48;;;;;;;;;;5008834;28;20041;-58
2022/12/03 08:01:50;;;;;;;23.33;10.98;;;;;;;;;;5003245;28;20617;-58
2022/12/03 08:04:17;;;;;;;20.30;8.85;;;;;;;;;;5001676;28;20041;-57
2022/12/03 08:06:44;;;;;;;17.67;10.70;;;2.70;99.90;;;;;;5003362;28;20456;-58
2022/12/03 08:09:10;;;;;;;23.83;11.90;;;;;;;;;;5002008;28;20037;-58
2022/12/03 08:11:36;;;;;;;22.55;13.48;;;;;;;;;;5004109;28;20719;-59
2022/12/03 08:14:13;;;;;;;22.10;11.27;;;3.10;99.90;;;;;;4997561;28;20136;-58
2022/12/03 08:16:41;;;;;;;23.95;13.13;;;3.00;99.90;;;;;;5003523;28;20050;-57
2022/12/03 08:19:15;;;;;;;23.70;13.65;;;3.00;99.90;;;;;;5004694;28;20132;-58
2022/12/03 08:21:41;;;;;;;21.02;11.10;;;;;;;;;;4999999;28;21400;-57
2022/12/03 08:24:16;;;;;;;26.67;12.77;;;3.00;99.90;;;;;;4996382;28;20187;-58
2022/12/03 08:26:44;;;;;;;26.40;12.75;;;2.80;99.90;;;;;;4998121;28;20188;-58
2022/12/03 08:29:16;;;;;;;25.35;11.88;;;2.90;99.90;;;;;;5004475;28;20042;-58
2022/12/03 08:31:46;;;;;;;25.85;13.77;;;3.00;99.90;;;;;;5003684;28;20627;-58
2022/12/03 08:34:23;;;;;;;22.83;12.43;;;;;;;;;;5002520;28;20041;-58
2022/12/03 08:36:52;;;;;;;24.95;13.20;;;2.90;99.90;;;;;;5001108;28;20520;-56
2022/12/03 08:39:40;;;;;;;20.55;11.63;;;2.80;99.90;;;;;;5000363;28;20049;-58
2022/12/03 08:45:30;;;;;;;21.88;11.23;;;2.90;99.90;;;;;;5002532;28;20119;-58
2022/12/03 08:48:03;;;;;;;24.45;13.18;;;2.90;99.90;;;;;;5003083;28;20049;-58
2022/12/03 08:50:38;;;;;;;24.85;13.82;;;2.90;99.90;;;;;;5001890;28;20045;-58
2022/12/03 08:53:12;;;;;;;25.17;13.90;;;2.90;99.90;;;;;;5005241;28;20045;-58
2022/12/03 08:55:46;;;;;;;25.35;13.60;;;2.60;99.90;;;;;;5004858;28;20699;-57
2022/12/03 08:58:33;;;;;;;23.73;12.57;;;2.90;99.90;;;;;;5009297;28;20038;-58
2022/12/03 09:01:10;;;;;;;23.50;12.63;;;2.80;99.90;;;;;;5003934;28;20079;-57
2022/12/03 09:03:37;;;;;;;23.45;12.27;;;;;;;;;;5006918;28;20057;-58
2022/12/03 09:06:18;;;;;;;24.67;11.48;;;;;;;;;;4959912;28;20052;-57
2022/12/03 09:08:45;;;;;;;24.10;13.75;;;;;;;;;;5004144;28;20108;-58
2022/12/03 09:11:11;;;;;;;25.90;15.18;;;;;;;;;;4999209;28;20479;-58
2022/12/03 09:13:37;;;;;;;26.00;15.07;;;;;;;;;;5002508;28;21191;-57
2022/12/03 09:16:03;;;;;;;20.55;10.90;;;;;;;;;;5006860;28;20052;-58
2022/12/03 09:18:29;;;;;;;23.65;12.68;;;;;;;;;;5007050;28;20826;-58
2022/12/03 09:20:55;;;;;;;24.20;12.38;;;;;;;;;;5007255;28;20658;-58
2022/12/03 09:23:22;;;;;;;25.67;14.18;;;;;;;;;;5007517;28;20041;-57
2022/12/03 09:25:48;;;;;;;27.98;14.95;;;;;;;;;;5002926;28;20120;-57
2022/12/03 09:28:14;;;;;;;26.45;14.95;;;;;;;;;;5004244;28;20045;-58
2022/12/03 09:30:40;;;;;;;26.80;15.00;;;;;;;;;;5005376;28;20045;-58
2022/12/03 09:33:06;;;;;;;28.05;14.57;;;;;;;;;;5005600;28;20464;-58
2022/12/03 09:35:32;;;;;;;24.20;13.27;;;;;;;;;;5006035;28;20582;-57
2022/12/03 09:37:59;;;;;;;23.67;12.43;;;;;;;;;;5005987;28;20038;-58
2022/12/03 09:40:25;;;;;;;25.10;13.82;;;;;;;;;;5009102;28;20049;-58
2022/12/03 09:42:51;;;;;;;26.27;15.02;;;;;;;;;;5008521;28;20136;-58
2022/12/03 09:45:17;;;;;;;24.67;14.50;;;;;;;;;;5008280;28;20497;-57
2022/12/03 09:47:47;;;;;;;29.35;15.00;;;2.80;99.90;;;;;;5008095;28;20399;-58
2022/12/03 09:50:17;;;;;;;24.58;14.77;;;2.60;99.90;;;;;;5007096;28;20103;-58
2022/12/03 09:52:44;;;;;;;23.80;11.38;;;;;;;;;;5006202;28;20046;-58
2022/12/03 09:55:23;;;;;;;25.42;13.30;;;2.90;99.90;;;;;;5006355;28;20049;-58
2022/12/03 09:57:49;;;;;;;26.95;14.38;;;;;;;;;;5007627;28;20099;-57
2022/12/03 10:00:17;;;;;;;19.10;10.10;;;2.70;99.90;;;;;;5008129;28;20045;-58
2022/12/03 10:02:45;;;;;;;32.90;16.08;;;2.70;99.90;;;;;;5009860;28;20449;-57
2022/12/03 10:05:11;;;;;;;27.20;15.93;;;;;;;;;;5011831;28;20045;-58
2022/12/03 10:07:38;;;;;;;30.45;16.23;;;;;;;;;;5007395;28;20132;-58
2022/12/03 10:10:04;;;;;;;26.05;15.50;;;;;;;;;;5008347;28;20041;-57
2022/12/03 10:12:30;;;;;;;24.88;12.07;;;;;;;;;;5003409;28;20049;-58
2022/12/03 10:14:56;;;;;;;31.35;16.27;;;;;;;;;;5005835;28;20541;-58
2022/12/03 10:17:22;;;;;;;27.00;15.70;;;;;;;;;;5005282;28;20041;-58
2022/12/03 10:19:48;;;;;;;28.75;14.30;;;;;;;;;;5003728;28;20084;-57
2022/12/03 10:22:14;;;;;;;27.70;14.45;;;;;;;;;;5002046;28;20056;-58
2022/12/03 10:24:41;;;;;;;28.50;14.57;;;;;;;;;;5005486;28;20057;-58
2022/12/03 10:27:28;;;;;;;27.50;14.45;;;2.60;99.90;;;;;;5003252;28;20040;-58
2022/12/03 10:29:55;;;;;;;28.35;13.55;;;;;;;;;;5004087;28;20091;-59
2022/12/03 10:32:43;;;;;;;29.05;15.20;;;3.20;99.90;;;;;;5007722;28;20071;-58
2022/12/03 10:35:18;;;;;;;30.80;15.82;;;2.60;99.90;;;;;;5008831;28;20132;-58
2022/12/03 10:38:17;;;;;;;28.98;16.00;;;2.60;99.90;;;;;;4994155;28;20405;-58
2022/12/03 10:40:43;;;;;;;26.67;12.68;;;;;;;;;;5004302;28;20038;-58
2022/12/03 10:43:18;;;;;;;23.58;11.57;;;;;;;;;;5006226;28;20046;-58
2022/12/03 10:46:09;;;;;;;26.50;15.35;;;2.80;99.90;;;;;;5001499;28;20037;-58
2022/12/03 10:48:35;;;;;;;26.55;13.48;;;;;;;;;;5002332;28;20120;-58
2022/12/03 10:51:14;;;;;;;24.60;12.52;;;2.70;99.90;;;;;;5005683;28;20060;-58
2022/12/03 10:53:41;;;;;;;26.38;14.30;;;;;;;;;;5003600;28;20426;-58
2022/12/03 10:56:12;;;;;;;30.60;16.20;;;2.70;99.90;;;;;;5004357;28;20045;-58
2022/12/03 10:58:39;;;;;;;28.70;15.65;;;2.50;99.90;;;;;;5002826;28;20045;-58
2022/12/03 11:01:20;;;;;;;27.48;15.82;;;2.60;99.90;;;;;;5002619;28;20127;-58
2022/12/03 11:03:47;;;;;;;29.23;15.10;;;2.80;99.90;;;;;;5005157;28;20053;-57
2022/12/03 11:06:15;;;;;;;23.60;12.48;;;2.80;99.90;;;;;;5006343;28;20266;-57
2022/12/03 11:08:44;;;;;;;27.92;13.27;;;2.70;99.90;;;;;;5002521;28;20048;-57
2022/12/03 11:11:25;;;;;;;28.45;15.63;;;2.50;99.90;;;;;;5005621;28;20435;-58
2022/12/03 11:13:56;;;;;;;26.92;15.35;;;2.70;99.90;;;;;;5005787;28;20592;-58
2022/12/03 11:16:40;;;;;;;28.20;14.98;;;2.70;99.90;;;;;;5001723;28;20104;-57
2022/12/03 11:19:11;;;;;;;29.90;15.68;;;2.50;99.90;;;;;;5008129;28;20596;-58
2022/12/03 11:22:03;;;;;;;26.52;15.45;;;4.50;99.90;;;;;;5003862;28;20037;-58
2022/12/03 11:24:30;;;;;;;26.67;14.55;;;2.60;99.90;;;;;;5001590;28;20096;-57
2022/12/03 11:26:57;;;;;;;20.83;9.35;;;;;;;;;;5005343;28;20923;-58
2022/12/03 11:29:54;;;;;;;28.55;16.05;;;2.60;99.90;;;;;;5000639;28;20124;-58
2022/12/03 11:32:41;;;;;;;27.85;14.43;;;2.60;99.90;;;;;;5000461;28;20557;-57
2022/12/03 11:35:35;;;;;;;20.80;10.90;;;2.60;99.90;;;;;;4996740;28;20474;-57
2022/12/03 11:38:39;;;;;;;24.23;12.18;;;2.50;99.90;;;;;;4999620;28;21155;-58
2022/12/03 11:41:13;;;;;;;26.40;13.90;;;2.60;99.90;;;;;;5001419;28;20042;-58
2022/12/03 11:43:51;;;;;;;28.48;14.52;;;2.50;99.90;;;;;;5000923;28;20052;-58
2022/12/03 11:46:42;;;;;;;30.42;16.30;;;2.50;99.90;;;;;;4998025;28;20119;-57
2022/12/03 11:49:33;;;;;;;28.92;15.80;;;2.50;99.90;;;;;;5001831;28;20042;-58
2022/12/03 11:52:01;;;;;;;27.13;12.45;;;4.50;99.90;;;;;;4995061;28;20045;-57
2022/12/03 11:54:28;;;;;;;24.13;14.65;;;;;;;;;;4999477;28;20136;-57
2022/12/03 11:56:55;;;;;;;21.70;10.90;;;;;;;;;;5001017;28;20045;-57
2022/12/03 11:59:21;;;;;;;29.73;16.85;;;;;;;;;;5002451;28;20053;-57
2022/12/03 12:01:47;;;;;;;29.52;16.17;;;;;;;;;;5000006;28;20084;-57
2022/12/03 12:04:33;;;;;;;30.00;15.95;;;2.50;99.90;;;;;;4998029;28;20046;-57
2022/12/03 12:07:00;;;;;;;32.17;15.45;;;2.50;99.90;;;;;;5001971;28;20054;-57
2022/12/03 12:09:48;;;;;;;23.05;12.32;;;2.60;99.90;;;;;;5007104;28;20050;-57
2022/12/03 12:12:36;;;;;;;29.27;15.65;;;2.60;99.90;;;;;;5002692;28;20080;-58
2022/12/03 12:15:37;;;;;;;23.73;11.82;;;2.60;99.90;;;;;;5003874;28;20280;-57
2022/12/03 12:18:37;;;;;;;25.95;14.70;;;2.60;99.90;;;;;;5001887;28;20045;-58
2022/12/03 12:21:40;;;;;;;28.85;15.85;;;0.80;99.90;;;;;;5002193;28;20038;-58
2022/12/03 12:24:39;;;;;;;29.10;16.60;;;2.70;99.90;;;;;;5005314;28;20041;-58
2022/12/03 12:27:10;;;;;;;29.20;15.98;;;2.50;99.90;;;;;;5003936;28;20824;-58
2022/12/03 12:29:38;;;;;;;22.97;12.57;;;2.90;99.90;;;;;;5004591;28;20125;-57
2022/12/03 12:32:12;;;;;;;28.83;15.52;;;2.50;99.90;;;;;;5002925;28;20285;-58
2022/12/03 12:34:39;;;;;;;29.42;16.25;;;2.80;99.90;;;;;;5006961;28;20045;-57
2022/12/03 12:37:38;;;;;;;27.13;16.83;;;2.50;99.90;;;;;;5001770;28;20124;-57
2022/12/03 12:40:17;;;;;;;30.20;16.73;;;2.60;99.90;;;;;;5005990;28;20045;-57
2022/12/03 12:42:58;;;;;;;26.67;13.27;;;2.40;99.90;;;;;;5004863;28;20449;-57
2022/12/03 12:45:26;;;;;;;28.38;15.05;;;2.50;99.90;;;;;;5007044;28;20045;-57
2022/12/03 12:47:58;;;;;;;28.65;15.40;;;2.60;99.90;;;;;;5007843;28;20041;-57
2022/12/03 12:50:24;;;;;;;26.27;15.18;;;;;;;;;;5003649;28;20704;-56
2022/12/03 12:52:57;;;;;;;27.65;14.75;;;2.60;99.90;;;;;;5004356;28;20041;-57
2022/12/03 12:55:23;;;;;;;27.35;14.73;;;;;;;;;;5004870;28;20440;-57
2022/12/03 12:57:50;;;;;;;28.13;15.93;;;;;;;;;;5006654;28;20045;-58
2022/12/03 13:00:21;;;;;;;31.08;17.25;;;2.40;99.90;;;;;;5005934;28;20409;-57
2022/12/03 13:02:55;;;;;;;29.13;16.38;;;2.60;99.90;;;;;;5003629;28;20042;-58
2022/12/03 13:05:23;;;;;;;28.73;16.73;;;2.20;99.90;;;;;;5023869;28;20069;-57
2022/12/03 13:07:51;;;;;;;29.70;16.67;;;2.40;99.90;;;;;;5005862;28;20065;-57
2022/12/03 13:10:29;;;;;;;26.90;15.20;;;;;;;;;;5006962;28;20041;-57
2022/12/03 13:12:56;;;;;;;28.92;16.10;;;;;;;;;;5005635;28;20344;-57
2022/12/03 13:15:58;;;;;;;27.92;16.13;;;2.20;99.90;;;;;;5003821;28;20087;-57
2022/12/03 13:18:41;;;;;;;28.85;15.82;;;2.20;99.90;;;;;;4993531;28;21147;-57
2022/12/03 13:21:37;;;;;;;29.75;15.63;;;2.40;99.90;;;;;;5005616;28;20164;-58
2022/12/03 13:24:28;;;;;;;29.02;15.45;;;2.30;99.90;;;;;;5004806;28;20045;-58
2022/12/03 13:26:54;;;;;;;26.23;13.48;;;;;;;;;;5002285;28;20573;-57
2022/12/03 13:29:24;;;;;;;28.83;15.68;;;2.30;99.90;;;;;;5010022;28;20034;-58
2022/12/03 13:31:53;;;;;;;28.20;13.52;;;2.30;99.90;;;;;;5004291;28;20081;-57
2022/12/03 13:34:22;;;;;;;22.85;13.32;;;2.20;99.90;;;;;;5005510;28;20478;-57
2022/12/03 13:36:48;;;;;;;27.45;14.52;;;;;;;;;;5006431;28;20045;-57
2022/12/03 13:39:19;;;;;;;28.85;15.15;;;2.50;99.90;;;;;;5003591;28;20232;-57
2022/12/03 13:44:31;;;;;;;31.10;15.55;;;2.20;99.90;;;;;;5006144;28;20050;-58
2022/12/03 13:47:00;;;;;;;31.40;16.92;;;2.20;99.90;;;;;;5004531;28;20471;-57
2022/12/03 13:49:27;;;;;;;28.38;15.43;;;;;;;;;;5004607;28;20553;-57
2022/12/03 13:51:53;;;;;;;32.33;17.05;;;;;;;;;;4999816;28;20500;-57
2022/12/03 13:54:21;;;;;;;29.30;15.60;;;2.10;99.90;;;;;;5003414;28;20049;-57
2022/12/03 13:56:48;;;;;;;28.33;16.55;;;;;;;;;;5002327;28;20056;-57
2022/12/03 13:59:15;;;;;;;26.67;14.50;;;;;;;;;;5008905;28;20641;-57
2022/12/03 14:01:41;;;;;;;28.77;14.93;;;;;;;;;;5009201;28;20214;-57
2022/12/03 14:04:07;;;;;;;33.78;18.33;;;;;;;;;;5010377;28;20787;-57
2022/12/03 14:06:33;;;;;;;23.73;13.77;;;;;;;;;;5010605;28;20040;-57
2022/12/03 14:08:59;;;;;;;24.80;14.05;;;;;;;;;;5009861;28;20054;-57
2022/12/03 14:14:10;;;;;;;26.65;15.07;;;;;;;;;;5006985;28;22737;-57
2022/12/03 14:16:36;;;;;;;32.75;17.65;;;;;;;;;;4997444;28;20045;-57
2022/12/03 14:19:03;;;;;;;29.58;12.80;;;;;;;;;;5001652;28;20141;-57